createdAt,value
2023-05-08T00:01:34.466Z,100.00
2023-05-08T00:03:36.133Z,100.00
2023-05-08T00:05:37.944Z,100.00
2023-05-08T00:07:39.388Z,100.00
2023-05-08T00:09:40.796Z,100.00
2023-05-08T00:11:42.389Z,100.00
2023-05-08T00:13:43.797Z,100.00
2023-05-08T00:15:45.349Z,100.00
2023-05-08T00:17:47.390Z,100.00
2023-05-08T00:19:48.905Z,100.00
2023-05-08T00:21:50.326Z,100.00
2023-05-08T00:23:51.936Z,100.00
2023-05-08T00:25:53.360Z,100.00
2023-05-08T00:27:54.783Z,100.00
2023-05-08T00:29:56.215Z,100.00
2023-05-08T00:31:57.704Z,100.00
2023-05-08T00:33:59.220Z,100.00
2023-05-08T00:36:02.373Z,100.00
2023-05-08T00:38:03.805Z,100.00
2023-05-08T00:40:05.904Z,100.00
2023-05-08T00:42:07.735Z,100.00
2023-05-08T00:44:09.215Z,100.00
2023-05-08T00:46:11.447Z,100.00
2023-05-08T00:48:13.110Z,100.00
2023-05-08T00:50:14.911Z,100.00
2023-05-08T00:52:17.569Z,100.00
2023-05-08T00:54:19.545Z,100.00
2023-05-08T00:56:23.677Z,100.00
2023-05-08T00:58:27.008Z,100.00
2023-05-08T01:00:29.123Z,100.00
2023-05-08T01:02:31.488Z,100.00
2023-05-08T01:04:34.893Z,100.00
2023-05-08T01:06:37.289Z,100.00
2023-05-08T01:08:39.069Z,100.00
2023-05-08T01:10:48.092Z,100.00
2023-05-08T01:13:26.885Z,100.00
2023-05-08T01:15:38.412Z,100.00
2023-05-08T01:17:48.892Z,100.00
2023-05-08T01:20:03.350Z,100.00
2023-05-08T01:22:29.260Z,100.00
2023-05-08T01:25:16.528Z,100.00
2023-05-08T01:27:42.270Z,100.00
2023-05-08T01:30:21.996Z,100.00
2023-05-08T01:32:30.039Z,100.00
2023-05-08T01:34:33.244Z,100.00
2023-05-08T01:36:52.101Z,100.00
2023-05-08T01:39:10.541Z,100.00
2023-05-08T01:41:18.429Z,100.00
2023-05-08T01:43:30.186Z,100.00
2023-05-08T01:45:44.871Z,100.00
2023-05-08T01:47:51.783Z,100.00
2023-05-08T01:50:21.088Z,100.00
2023-05-08T01:52:34.443Z,100.00
2023-05-08T01:54:55.475Z,100.00
2023-05-08T01:56:59.516Z,100.00
2023-05-08T01:59:02.335Z,100.00
2023-05-08T02:01:04.850Z,100.00
2023-05-08T02:03:08.630Z,100.00
2023-05-08T02:05:10.960Z,100.00
2023-05-08T02:07:12.659Z,100.00
2023-05-08T02:09:15.309Z,100.00
2023-05-08T02:11:18.308Z,100.00
2023-05-08T02:13:21.857Z,100.00
2023-05-08T02:15:25.939Z,100.00
2023-05-08T02:17:28.900Z,100.00
2023-05-08T02:19:31.422Z,100.00
2023-05-08T02:21:33.984Z,100.00
2023-05-08T02:23:36.057Z,100.00
2023-05-08T02:25:38.963Z,100.00
2023-05-08T02:27:43.499Z,100.00
2023-05-08T02:29:45.044Z,100.00
2023-05-08T02:31:48.151Z,100.00
2023-05-08T02:33:51.828Z,100.00
2023-05-08T02:35:54.477Z,100.00
2023-05-08T02:37:57.116Z,100.00
2023-05-08T02:39:58.988Z,100.00
2023-05-08T02:42:00.626Z,100.00
2023-05-08T02:44:02.242Z,100.00
2023-05-08T02:46:21.041Z,100.00
2023-05-08T02:48:33.299Z,100.00
2023-05-08T02:50:48.536Z,100.00
2023-05-08T02:52:54.384Z,100.00
2023-05-08T02:55:08.688Z,100.00
2023-05-08T02:57:28.627Z,100.00
2023-05-08T02:59:42.364Z,100.00
2023-05-08T03:02:02.291Z,100.00
2023-05-08T03:04:07.620Z,100.00
2023-05-08T03:06:26.346Z,100.00
2023-05-08T03:08:30.959Z,100.00
2023-05-08T03:10:35.129Z,100.00
2023-05-08T03:12:42.789Z,100.00
2023-05-08T03:14:54.810Z,100.00
2023-05-08T03:16:59.067Z,100.00
2023-05-08T03:19:03.806Z,100.00
2023-05-08T03:21:07.255Z,100.00
2023-05-08T03:23:10.094Z,100.00
2023-05-08T03:25:14.139Z,100.00
2023-05-08T03:27:16.783Z,100.00
2023-05-08T03:29:19.752Z,100.00
2023-05-08T03:31:23.017Z,100.00
2023-05-08T03:33:25.519Z,100.00
2023-05-08T03:35:27.718Z,100.00
2023-05-08T03:37:29.645Z,100.00
2023-05-08T03:39:31.319Z,100.00
2023-05-08T03:41:32.922Z,100.00
2023-05-08T03:43:36.743Z,100.00
2023-05-08T03:45:40.555Z,100.00
2023-05-08T03:47:44.318Z,100.00
2023-05-08T03:49:47.578Z,100.00
2023-05-08T03:51:49.773Z,100.00
2023-05-08T03:53:51.184Z,100.00
2023-05-08T03:55:52.697Z,100.00
2023-05-08T03:58:04.516Z,100.00
2023-05-08T04:00:24.632Z,100.00
2023-05-08T04:02:50.557Z,100.00
2023-05-08T04:05:00.551Z,100.00
2023-05-08T04:07:34.778Z,100.00
2023-05-08T04:09:41.708Z,100.00
2023-05-08T04:11:52.294Z,100.00
2023-05-08T04:14:00.660Z,100.00
2023-05-08T04:16:15.836Z,100.00
2023-05-08T04:18:22.181Z,100.00
2023-05-08T04:20:27.154Z,100.00
2023-05-08T04:22:31.731Z,100.00
2023-05-08T04:24:37.119Z,100.00
2023-05-08T04:26:39.739Z,100.00
2023-05-08T04:28:41.544Z,100.00
2023-05-08T04:30:43.093Z,100.00
2023-05-08T04:32:46.631Z,100.00
2023-05-08T04:34:48.943Z,100.00
2023-05-08T04:36:50.488Z,100.00
2023-05-08T04:38:51.957Z,100.00
2023-05-08T04:40:53.526Z,100.00
2023-05-08T04:42:55.485Z,91.68
2023-05-08T04:44:56.888Z,94.62
2023-05-08T04:46:58.393Z,92.31
2023-05-08T04:48:59.901Z,86.76
2023-05-08T04:51:01.297Z,81.56
2023-05-08T04:53:02.974Z,80.65
2023-05-08T04:55:05.044Z,76.96
2023-05-08T04:57:06.455Z,78.90
2023-05-08T04:59:08.019Z,77.47
2023-05-08T05:01:09.714Z,73.91
2023-05-08T05:03:11.315Z,71.73
2023-05-08T05:05:13.195Z,70.74
2023-05-08T05:07:15.037Z,66.10
2023-05-08T05:09:16.465Z,68.51
2023-05-08T05:11:18.115Z,66.99
2023-05-08T05:13:19.706Z,65.72
2023-05-08T05:15:21.135Z,61.87
2023-05-08T05:17:23.221Z,62.75
2023-05-08T05:19:24.850Z,64.75
2023-05-08T05:21:26.307Z,64.78
2023-05-08T05:23:27.912Z,64.63
2023-05-08T05:25:29.410Z,63.54
2023-05-08T05:27:30.923Z,64.60
2023-05-08T05:29:32.456Z,65.42
2023-05-08T05:31:33.995Z,67.59
2023-05-08T05:33:35.552Z,66.42
2023-05-08T05:35:37.112Z,66.07
2023-05-08T05:37:38.771Z,63.16
2023-05-08T05:39:40.174Z,62.86
2023-05-08T05:41:41.674Z,64.04
2023-05-08T05:43:43.152Z,61.26
2023-05-08T05:45:44.580Z,63.14
2023-05-08T05:47:46.657Z,65.73
2023-05-08T05:49:48.356Z,65.27
2023-05-08T05:51:49.730Z,67.64
2023-05-08T05:53:51.161Z,70.09
2023-05-08T05:55:52.543Z,66.05
2023-05-08T05:57:53.954Z,65.06
2023-05-08T05:59:55.347Z,65.03
2023-05-08T06:01:57.005Z,64.25
2023-05-08T06:03:58.491Z,60.50
2023-05-08T06:06:00.035Z,61.59
2023-05-08T06:08:01.644Z,61.53
2023-05-08T06:10:03.111Z,62.03
2023-05-08T06:12:04.574Z,60.25
2023-05-08T06:14:06.169Z,58.85
2023-05-08T06:16:07.987Z,58.82
2023-05-08T06:18:09.672Z,61.96
2023-05-08T06:20:11.364Z,60.83
2023-05-08T06:22:12.844Z,61.63
2023-05-08T06:24:14.364Z,62.32
2023-05-08T06:26:15.792Z,61.73
2023-05-08T06:28:17.774Z,60.37
2023-05-08T06:30:19.460Z,58.47
2023-05-08T06:32:21.061Z,58.97
2023-05-08T06:34:22.726Z,60.85
2023-05-08T06:36:24.276Z,58.66
2023-05-08T06:38:25.671Z,59.40
2023-05-08T06:40:27.233Z,58.04
2023-05-08T06:42:28.947Z,55.60
2023-05-08T06:44:30.371Z,52.92
2023-05-08T06:46:32.103Z,56.52
2023-05-08T06:48:34.403Z,50.80
2023-05-08T06:50:39.599Z,51.73
2023-05-08T06:52:41.108Z,48.72
2023-05-08T06:54:42.683Z,47.43
2023-05-08T06:56:44.095Z,49.44
2023-05-08T06:58:56.554Z,47.89
2023-05-08T07:01:06.556Z,53.10
2023-05-08T07:03:08.074Z,50.31
2023-05-08T07:05:09.979Z,51.42
2023-05-08T07:07:11.690Z,49.93
2023-05-08T07:09:13.138Z,49.17
2023-05-08T07:11:14.795Z,48.00
2023-05-08T07:13:17.594Z,50.58
2023-05-08T07:15:25.959Z,46.65
2023-05-08T07:17:27.785Z,47.35
2023-05-08T07:19:29.228Z,47.42
2023-05-08T07:21:30.667Z,46.13
2023-05-08T07:23:32.413Z,45.23
2023-05-08T07:25:33.834Z,46.69
2023-05-08T07:27:35.268Z,45.48
2023-05-08T07:29:39.067Z,44.28
2023-05-08T07:31:40.712Z,45.92
2023-05-08T07:33:42.219Z,46.61
2023-05-08T07:35:43.719Z,45.96
2023-05-08T07:37:45.314Z,44.24
2023-05-08T07:39:46.710Z,42.89
2023-05-08T07:41:49.888Z,41.80
2023-05-08T07:43:51.805Z,41.26
2023-05-08T07:45:53.313Z,42.60
2023-05-08T07:47:57.147Z,43.86
2023-05-08T07:49:58.799Z,43.11
2023-05-08T07:52:00.249Z,45.02
2023-05-08T07:54:01.819Z,44.06
2023-05-08T07:56:03.340Z,43.88
2023-05-08T07:58:04.773Z,40.83
2023-05-08T08:00:09.982Z,41.52
2023-05-08T08:02:11.484Z,43.64
2023-05-08T08:04:15.323Z,42.47
2023-05-08T08:06:17.074Z,43.31
2023-05-08T08:08:18.682Z,43.37
2023-05-08T08:10:20.166Z,42.55
2023-05-08T08:12:21.900Z,43.48
2023-05-08T08:14:23.627Z,42.74
2023-05-08T08:16:25.943Z,42.72
2023-05-08T08:18:27.592Z,43.90
2023-05-08T08:20:29.244Z,45.52
2023-05-08T08:22:30.781Z,42.83
2023-05-08T08:24:32.257Z,43.80
2023-05-08T08:26:33.844Z,47.30
2023-05-08T08:28:35.268Z,44.82
2023-05-08T08:30:36.922Z,43.21
2023-05-08T08:32:38.447Z,44.16
2023-05-08T08:34:39.858Z,44.73
2023-05-08T08:36:41.507Z,43.92
2023-05-08T08:38:42.913Z,44.04
2023-05-08T08:40:44.346Z,46.37
2023-05-08T08:42:45.818Z,42.74
2023-05-08T08:44:47.515Z,45.90
2023-05-08T08:46:51.547Z,44.18
2023-05-08T08:48:57.450Z,42.86
2023-05-08T08:51:06.284Z,42.82
2023-05-08T08:53:19.182Z,44.36
2023-05-08T08:55:22.539Z,46.27
2023-05-08T08:57:27.327Z,46.94
2023-05-08T08:59:29.886Z,46.82
2023-05-08T09:01:34.528Z,45.05
2023-05-08T09:03:36.302Z,44.84
2023-05-08T09:05:38.638Z,45.42
2023-05-08T09:07:40.481Z,44.02
2023-05-08T09:09:43.336Z,42.78
2023-05-08T09:11:46.440Z,43.21
2023-05-08T09:13:48.068Z,41.87
2023-05-08T09:15:49.731Z,46.21
2023-05-08T09:17:51.158Z,44.94
2023-05-08T09:19:53.252Z,41.54
2023-05-08T09:21:55.098Z,41.15
2023-05-08T09:23:56.455Z,41.50
2023-05-08T09:25:58.187Z,42.71
2023-05-08T09:28:17.078Z,44.06
2023-05-08T09:30:18.465Z,44.93
2023-05-08T09:32:20.113Z,42.70
2023-05-08T09:34:29.979Z,41.72
2023-05-08T09:36:31.393Z,41.60
2023-05-08T09:38:37.944Z,42.50
2023-05-08T09:40:39.618Z,42.28
2023-05-08T09:42:41.174Z,43.31
2023-05-08T09:44:53.641Z,43.86
2023-05-08T09:47:16.385Z,38.84
2023-05-08T09:49:18.285Z,41.05
2023-05-08T09:51:20.592Z,42.48
2023-05-08T09:53:31.453Z,42.74
2023-05-08T09:55:46.911Z,42.21
2023-05-08T09:57:56.577Z,43.27
2023-05-08T10:00:05.807Z,44.46
2023-05-08T10:02:11.191Z,43.38
2023-05-08T10:04:13.000Z,42.96
2023-05-08T10:06:15.153Z,42.03
2023-05-08T10:08:21.796Z,42.96
2023-05-08T10:10:28.064Z,42.70
2023-05-08T10:12:30.159Z,41.05
2023-05-08T10:14:31.579Z,42.09
2023-05-08T10:16:44.322Z,42.01
2023-05-08T10:18:50.249Z,39.80
2023-05-08T10:20:55.180Z,39.62
2023-05-08T10:22:57.650Z,40.33
2023-05-08T10:25:02.341Z,35.90
2023-05-08T10:27:52.739Z,38.10
2023-05-08T10:29:56.188Z,39.25
2023-05-08T10:31:59.616Z,39.90
2023-05-08T10:34:02.561Z,40.42
2023-05-08T10:36:05.085Z,42.56
2023-05-08T10:38:08.743Z,40.55
2023-05-08T10:40:10.472Z,38.68
2023-05-08T10:42:15.093Z,37.53
2023-05-08T10:44:17.094Z,37.47
2023-05-08T10:46:29.069Z,37.75
2023-05-08T10:48:52.515Z,38.97
2023-05-08T10:51:06.392Z,38.28
2023-05-08T10:53:15.793Z,38.21
2023-05-08T10:55:29.869Z,38.70
2023-05-08T10:57:31.624Z,39.21
2023-05-08T10:59:36.129Z,41.76
2023-05-08T11:01:39.613Z,41.51
2023-05-08T11:03:46.522Z,40.81
2023-05-08T11:05:50.156Z,40.71
2023-05-08T11:07:59.337Z,39.08
2023-05-08T11:10:13.080Z,39.72
2023-05-08T11:12:22.828Z,39.98
2023-05-08T11:14:24.951Z,40.56
2023-05-08T11:16:54.504Z,40.76
2023-05-08T11:19:18.444Z,39.48
2023-05-08T11:21:21.189Z,39.18
2023-05-08T11:23:34.074Z,38.10
2023-05-08T11:25:42.588Z,39.97
2023-05-08T11:27:46.913Z,38.65
2023-05-08T11:30:25.065Z,37.93
2023-05-08T11:33:11.625Z,38.00
2023-05-08T11:35:13.795Z,37.62
2023-05-08T11:37:23.094Z,38.69
2023-05-08T11:39:24.795Z,39.97
2023-05-08T11:41:26.211Z,39.33
2023-05-08T11:43:33.602Z,40.38
2023-05-08T11:45:41.267Z,39.46
2023-05-08T11:47:44.551Z,39.32
2023-05-08T11:49:46.154Z,39.32
2023-05-08T11:51:53.071Z,38.08
2023-05-08T11:53:54.506Z,37.55
2023-05-08T11:55:56.343Z,36.12
2023-05-08T11:57:57.947Z,36.82
2023-05-08T12:00:12.427Z,37.59
2023-05-08T12:02:14.237Z,36.94
2023-05-08T12:04:15.898Z,37.59
2023-05-08T12:06:18.766Z,37.64
2023-05-08T12:08:20.363Z,36.86
2023-05-08T12:10:21.883Z,37.46
2023-05-08T12:12:23.303Z,37.28
2023-05-08T12:14:25.040Z,37.07
2023-05-08T12:16:26.765Z,38.00
2023-05-08T12:18:28.790Z,36.78
2023-05-08T12:20:32.033Z,36.77
2023-05-08T12:22:35.153Z,39.08
2023-05-08T12:24:36.621Z,38.10
2023-05-08T12:26:38.581Z,37.16
2023-05-08T12:28:40.168Z,38.73
2023-05-08T12:30:42.184Z,38.09
2023-05-08T12:32:44.600Z,35.49
2023-05-08T12:34:46.225Z,35.45
2023-05-08T12:36:47.665Z,35.03
2023-05-08T12:38:51.698Z,36.81
2023-05-08T12:40:53.747Z,35.81
2023-05-08T12:42:55.223Z,35.20
2023-05-08T12:44:57.659Z,36.81
2023-05-08T12:46:59.428Z,36.03
2023-05-08T12:49:02.052Z,37.13
2023-05-08T12:51:04.777Z,37.40
2023-05-08T12:53:08.559Z,37.11
2023-05-08T12:55:23.408Z,36.89
2023-05-08T12:57:24.946Z,35.33
2023-05-08T12:59:32.555Z,36.13
2023-05-08T13:01:33.969Z,36.41
2023-05-08T13:03:36.465Z,37.01
2023-05-08T13:05:42.251Z,35.64
2023-05-08T13:07:43.715Z,36.30
2023-05-08T13:10:01.924Z,36.24
2023-05-08T13:12:03.539Z,36.40
2023-05-08T13:14:04.948Z,35.65
2023-05-08T13:16:07.722Z,35.75
2023-05-08T13:18:09.500Z,35.32
2023-05-08T13:20:11.549Z,35.46
2023-05-08T13:22:13.359Z,34.84
2023-05-08T13:24:15.164Z,34.61
2023-05-08T13:26:16.626Z,35.92
2023-05-08T13:28:18.240Z,37.31
2023-05-08T13:30:19.772Z,37.16
2023-05-08T13:32:21.301Z,35.56
2023-05-08T13:34:22.962Z,37.02
2023-05-08T13:36:24.757Z,36.60
2023-05-08T13:38:26.204Z,34.76
2023-05-08T13:40:28.226Z,35.32
2023-05-08T13:42:29.830Z,35.25
2023-05-08T13:44:31.229Z,37.11
2023-05-08T13:46:32.788Z,34.73
2023-05-08T13:48:34.415Z,35.00
2023-05-08T13:50:35.901Z,34.58
2023-05-08T13:52:38.620Z,34.83
2023-05-08T13:54:40.110Z,35.11
2023-05-08T13:56:41.639Z,34.58
2023-05-08T13:58:43.227Z,35.57
2023-05-08T14:00:44.734Z,36.26
2023-05-08T14:02:46.612Z,35.81
2023-05-08T14:04:48.246Z,35.75
2023-05-08T14:06:50.000Z,34.27
2023-05-08T14:08:54.230Z,35.08
2023-05-08T14:10:56.884Z,34.92
2023-05-08T14:12:58.483Z,35.26
2023-05-08T14:14:59.904Z,35.25
2023-05-08T14:17:01.859Z,34.94
2023-05-08T14:19:03.477Z,34.86
2023-05-08T14:21:04.905Z,35.57
2023-05-08T14:23:06.397Z,36.16
2023-05-08T14:25:08.691Z,35.16
2023-05-08T14:27:10.432Z,36.49
2023-05-08T14:29:12.074Z,34.42
2023-05-08T14:31:13.708Z,33.85
2023-05-08T14:33:17.149Z,34.95
2023-05-08T14:35:20.089Z,34.06
2023-05-08T14:37:21.586Z,33.20
2023-05-08T14:39:23.055Z,34.12
2023-05-08T14:41:28.879Z,34.39
2023-05-08T14:43:30.560Z,33.30
2023-05-08T14:45:31.971Z,33.59
2023-05-08T14:47:33.498Z,34.52
2023-05-08T14:49:38.394Z,33.95
2023-05-08T14:51:40.305Z,36.23
2023-05-08T14:53:42.076Z,34.03
2023-05-08T14:57:49.200Z,34.62
2023-05-08T14:59:55.055Z,35.08
2023-05-08T15:01:56.987Z,33.97
2023-05-08T15:03:58.552Z,34.20
2023-05-08T15:06:00.137Z,34.30
2023-05-08T15:08:01.587Z,34.25
2023-05-08T15:10:03.622Z,34.46
2023-05-08T15:12:05.488Z,33.68
2023-05-08T15:14:06.957Z,33.84
2023-05-08T15:16:08.546Z,36.19
2023-05-08T15:18:10.167Z,35.02
2023-05-08T15:20:11.692Z,35.76
2023-05-08T15:22:13.462Z,35.92
2023-05-08T15:24:14.972Z,34.82
2023-05-08T15:26:16.447Z,35.31
2023-05-08T15:28:17.956Z,36.15
2023-05-08T15:30:20.503Z,35.09
2023-05-08T15:32:22.161Z,35.73
2023-05-08T15:34:26.371Z,35.47
2023-05-08T15:36:30.500Z,34.84
2023-05-08T15:38:32.029Z,35.65
2023-05-08T15:40:33.983Z,35.36
2023-05-08T15:42:35.589Z,34.17
2023-05-08T15:44:53.906Z,35.00
2023-05-08T15:46:56.402Z,34.52
2023-05-08T15:48:58.558Z,34.56
2023-05-08T15:51:01.327Z,35.58
2023-05-08T15:53:02.770Z,35.97
2023-05-08T15:55:05.357Z,35.87
2023-05-08T15:57:06.840Z,37.02
2023-05-08T15:59:08.292Z,35.41
2023-05-08T16:01:09.816Z,37.42
2023-05-08T16:03:11.562Z,36.16
2023-05-08T16:05:13.315Z,36.64
2023-05-08T16:07:15.100Z,37.24
2023-05-08T16:09:16.509Z,36.16
2023-05-08T16:11:17.910Z,35.59
2023-05-08T16:13:19.698Z,34.86
2023-05-08T16:15:21.321Z,35.33
2023-05-08T16:17:22.771Z,34.34
2023-05-08T16:19:24.521Z,34.81
2023-05-08T16:21:25.999Z,34.44
2023-05-08T16:23:27.419Z,35.15
2023-05-08T16:25:28.897Z,34.68
2023-05-08T16:27:30.447Z,35.23
2023-05-08T16:29:31.851Z,35.86
2023-05-08T16:31:33.606Z,35.49
2023-05-08T16:33:35.187Z,35.58
2023-05-08T16:35:36.621Z,35.10
2023-05-08T16:37:38.198Z,34.88
2023-05-08T16:39:39.832Z,35.42
2023-05-08T16:41:41.233Z,35.73
2023-05-08T16:43:42.749Z,35.92
2023-05-08T16:45:44.420Z,35.80
2023-05-08T16:47:46.072Z,36.23
2023-05-08T16:49:47.675Z,36.64
2023-05-08T16:51:49.346Z,35.35
2023-05-08T16:53:50.752Z,35.30
2023-05-08T16:55:52.185Z,35.94
2023-05-08T16:57:53.676Z,36.00
2023-05-08T16:59:55.087Z,36.06
2023-05-08T17:01:56.692Z,36.38
2023-05-08T17:03:58.300Z,37.23
2023-05-08T17:05:59.737Z,35.68
2023-05-08T17:08:01.351Z,35.56
2023-05-08T17:10:02.924Z,35.88
2023-05-08T17:12:04.710Z,36.20
2023-05-08T17:14:06.248Z,37.11
2023-05-08T17:16:07.777Z,36.53
2023-05-08T17:18:09.228Z,37.74
2023-05-08T17:20:11.818Z,36.83
2023-05-08T17:22:13.653Z,37.72
2023-05-08T17:24:15.037Z,36.78
2023-05-08T17:26:18.103Z,37.22
2023-05-08T17:28:19.532Z,37.06
2023-05-08T17:30:20.978Z,37.53
2023-05-08T17:32:22.565Z,37.55
2023-05-08T17:34:24.187Z,37.78
2023-05-08T17:36:25.637Z,38.35
2023-05-08T17:38:27.258Z,39.76
2023-05-08T17:40:28.879Z,40.63
2023-05-08T17:42:30.291Z,39.89
2023-05-08T17:44:31.950Z,40.51
2023-05-08T17:46:33.455Z,39.81
2023-05-08T17:48:35.248Z,40.84
2023-05-08T17:50:36.953Z,40.71
2023-05-08T17:52:38.570Z,40.42
2023-05-08T17:54:39.985Z,40.96
2023-05-08T17:56:41.508Z,40.83
2023-05-08T17:58:42.994Z,41.10
2023-05-08T18:00:44.428Z,41.90
2023-05-08T18:02:46.098Z,43.22
2023-05-08T18:04:47.791Z,43.31
2023-05-08T18:06:49.247Z,45.20
2023-05-08T18:08:50.839Z,45.95
2023-05-08T18:10:52.454Z,46.67
2023-05-08T18:12:53.938Z,47.24
2023-05-08T18:14:55.649Z,47.25
2023-05-08T18:16:57.394Z,48.78
2023-05-08T18:18:58.819Z,49.86
2023-05-08T18:21:00.441Z,51.80
2023-05-08T18:23:01.984Z,51.68
2023-05-08T18:25:03.596Z,54.95
2023-05-08T18:27:05.201Z,55.27
2023-05-08T18:29:07.424Z,55.50
2023-05-08T18:31:09.303Z,54.55
2023-05-08T18:33:10.875Z,56.26
2023-05-08T18:35:12.521Z,58.00
2023-05-08T18:37:13.946Z,58.00
2023-05-08T18:39:15.547Z,58.70
2023-05-08T18:41:17.032Z,63.40
2023-05-08T18:43:18.429Z,64.75
2023-05-08T18:45:19.979Z,67.80
2023-05-08T18:47:21.646Z,67.91
2023-05-08T18:49:23.040Z,65.78
2023-05-08T18:51:24.660Z,66.22
2023-05-08T18:53:26.360Z,67.12
2023-05-08T18:55:27.791Z,74.30
2023-05-08T18:57:29.270Z,71.32
2023-05-08T18:59:30.840Z,70.88
2023-05-08T19:01:32.268Z,68.53
2023-05-08T19:03:33.951Z,77.61
2023-05-08T19:05:35.375Z,72.68
2023-05-08T19:07:37.214Z,75.03
2023-05-08T19:09:38.750Z,77.45
2023-05-08T19:11:40.333Z,75.71
2023-05-08T19:13:41.748Z,74.49
2023-05-08T19:15:43.366Z,73.93
2023-05-08T19:17:45.508Z,78.50
2023-05-08T19:19:49.051Z,81.61
2023-05-08T19:21:50.599Z,83.18
2023-05-08T19:23:52.066Z,85.35
2023-05-08T19:25:53.559Z,86.86
2023-05-08T19:27:55.089Z,86.01
2023-05-08T19:29:56.506Z,82.85
2023-05-08T19:31:57.994Z,80.96
2023-05-08T19:34:00.392Z,80.92
2023-05-08T19:36:01.822Z,89.08
2023-05-08T19:38:03.203Z,88.17
2023-05-08T19:40:05.810Z,95.97
2023-05-08T19:42:07.208Z,90.78
2023-05-08T19:44:08.781Z,95.36
2023-05-08T19:46:10.387Z,94.36
2023-05-08T19:48:17.858Z,97.08
2023-05-08T19:50:19.914Z,100.00
2023-05-08T19:52:21.484Z,100.00
2023-05-08T19:54:22.862Z,99.54
2023-05-08T19:56:24.374Z,100.00
2023-05-08T19:58:25.952Z,100.00
2023-05-08T20:00:27.358Z,100.00
2023-05-08T20:02:28.995Z,100.00
2023-05-08T20:04:30.694Z,100.00
2023-05-08T20:06:32.792Z,100.00
2023-05-08T20:08:34.296Z,100.00
2023-05-08T20:10:35.828Z,100.00
2023-05-08T20:12:37.240Z,100.00
2023-05-08T20:14:38.734Z,100.00
2023-05-08T20:16:40.374Z,100.00
2023-05-08T20:18:41.924Z,100.00
2023-05-08T20:20:43.373Z,100.00
2023-05-08T20:22:44.926Z,100.00
2023-05-08T20:24:46.326Z,100.00
2023-05-08T20:26:47.761Z,100.00
2023-05-08T20:28:49.189Z,100.00
2023-05-08T20:30:50.635Z,100.00
2023-05-08T20:32:52.293Z,100.00
2023-05-08T20:34:53.739Z,100.00
2023-05-08T20:36:56.002Z,100.00
2023-05-08T20:38:57.527Z,100.00
2023-05-08T20:41:01.035Z,100.00
2023-05-08T20:43:02.838Z,100.00
2023-05-08T20:45:04.637Z,100.00
2023-05-08T20:47:06.310Z,100.00
2023-05-08T20:49:07.786Z,100.00
2023-05-08T20:51:09.285Z,100.00
2023-05-08T20:53:10.723Z,100.00
2023-05-08T20:55:12.313Z,100.00
2023-05-08T20:57:14.285Z,100.00
2023-05-08T20:59:15.686Z,100.00
2023-05-08T21:01:19.217Z,100.00
2023-05-08T21:03:22.260Z,100.00
2023-05-08T21:05:23.807Z,100.00
2023-05-08T21:07:28.099Z,100.00
2023-05-08T21:09:29.589Z,100.00
2023-05-08T21:11:31.134Z,100.00
2023-05-08T21:13:32.730Z,100.00
2023-05-08T21:15:34.211Z,100.00
2023-05-08T21:17:35.732Z,100.00
2023-05-08T21:19:37.214Z,100.00
2023-05-08T21:21:38.666Z,100.00
2023-05-08T21:23:40.399Z,100.00
2023-05-08T21:25:41.816Z,100.00
2023-05-08T21:27:43.772Z,100.00
2023-05-08T21:29:45.357Z,100.00
2023-05-08T21:31:46.870Z,100.00
2023-05-08T21:33:48.371Z,100.00
2023-05-08T21:35:49.997Z,100.00
2023-05-08T21:37:53.822Z,100.00
2023-05-08T21:39:56.073Z,100.00
2023-05-08T21:41:57.620Z,100.00
2023-05-08T21:43:59.057Z,100.00
2023-05-08T21:46:00.758Z,100.00
2023-05-08T21:48:02.673Z,100.00
2023-05-08T21:50:04.260Z,100.00
2023-05-08T21:52:05.742Z,100.00
2023-05-08T21:54:07.689Z,100.00
2023-05-08T21:56:09.145Z,100.00
2023-05-08T21:58:10.553Z,100.00
2023-05-08T22:00:12.770Z,100.00
2023-05-08T22:02:14.219Z,100.00
2023-05-08T22:04:15.612Z,100.00
2023-05-08T22:06:17.124Z,100.00
2023-05-08T22:08:18.515Z,100.00
2023-05-08T22:10:19.953Z,100.00
2023-05-08T22:12:21.465Z,100.00
2023-05-08T22:14:22.908Z,100.00
2023-05-08T22:16:24.400Z,100.00
2023-05-08T22:18:25.997Z,100.00
2023-05-08T22:20:27.470Z,100.00
2023-05-08T22:22:28.932Z,100.00
2023-05-08T22:24:30.487Z,100.00
2023-05-08T22:26:31.874Z,100.00
2023-05-08T22:28:33.365Z,100.00
2023-05-08T22:30:34.855Z,100.00
2023-05-08T22:32:36.382Z,100.00
2023-05-08T22:34:37.953Z,100.00
2023-05-08T22:36:39.535Z,100.00
2023-05-08T22:38:40.940Z,100.00
2023-05-08T22:40:42.523Z,100.00
2023-05-08T22:42:44.943Z,100.00
2023-05-08T22:44:46.447Z,100.00
2023-05-08T22:46:48.084Z,100.00
2023-05-08T22:48:50.912Z,100.00
2023-05-08T22:50:52.350Z,100.00
2023-05-08T22:52:53.892Z,100.00
2023-05-08T22:54:55.454Z,100.00
2023-05-08T22:56:56.859Z,100.00
2023-05-08T22:58:58.343Z,100.00
2023-05-08T23:01:00.008Z,100.00
2023-05-08T23:03:01.515Z,100.00
2023-05-08T23:05:03.204Z,100.00
2023-05-08T23:07:04.831Z,100.00
2023-05-08T23:09:06.241Z,100.00
2023-05-08T23:11:07.800Z,100.00
2023-05-08T23:13:09.641Z,100.00
2023-05-08T23:15:11.972Z,100.00
2023-05-08T23:17:13.877Z,100.00
2023-05-08T23:19:16.663Z,100.00
2023-05-08T23:21:18.075Z,100.00
2023-05-08T23:23:19.556Z,100.00
2023-05-08T23:25:21.382Z,100.00
2023-05-08T23:27:22.846Z,100.00
2023-05-08T23:29:24.427Z,100.00
2023-05-08T23:31:26.018Z,100.00
2023-05-08T23:33:28.344Z,100.00
2023-05-08T23:35:29.848Z,100.00
2023-05-08T23:37:31.473Z,100.00
2023-05-08T23:39:33.456Z,100.00
2023-05-08T23:41:35.208Z,100.00
2023-05-08T23:43:37.272Z,100.00
2023-05-08T23:45:38.699Z,100.00
2023-05-08T23:47:40.665Z,100.00
2023-05-08T23:49:42.082Z,100.00
2023-05-08T23:51:43.482Z,100.00
2023-05-08T23:53:45.090Z,100.00
2023-05-08T23:55:49.923Z,100.00
2023-05-08T23:57:51.468Z,100.00
2023-05-08T23:59:53.176Z,100.00
